ハルツーム の空港の天気 - METARとTAF

ハルツーム国際空港 ( HSSS / KRT ) - スーダン ハルツーム
飛行場実況気象(Metar)
観測時間02/17 16:30 CAT (02/17 14:30 UTC)
風向・風速北北西 6m/s
視程10km以上
天気現象
なし
気温28℃
湿度10%
気圧1014hPa
METARHSSS 171430Z 34012KT CAVOK 28/M06 Q1014 NOSIG
過去の天気等 Google飛行場航空写真 Wunderground天気予報

過去48時間のMETAR

飛行場予報(TAF)
発表時間: 2/17 13:00 CAT (2/17 11:00 UTC)
予報対象時間: 17日14時 CAT ~ 18日20時 CAT
風向・風速北 5m/s 瞬間風速 10m/s
視程10km以上
なし
18日7時 CAT ~ 18日11時 CAT に一時的に
視程6000m
なし
TAF HSSS 171100Z 1712/1818 35010G20KT CAVOK
TEMPO 1805/1809 6000 NSC